createdAt,value
2017-03-20T00:00:55.362Z,91.857
2017-03-20T00:03:48.847Z,93.920
2017-03-20T00:06:42.705Z,92.038
2017-03-20T00:09:36.601Z,91.769
2017-03-20T00:12:30.989Z,91.805
2017-03-20T00:15:25.469Z,91.967
2017-03-20T00:18:19.937Z,91.997
2017-03-20T00:21:14.429Z,92.403
2017-03-20T00:24:09.000Z,92.617
2017-03-20T00:27:03.577Z,92.469
2017-03-20T00:29:58.213Z,92.729
2017-03-20T00:32:54.501Z,92.444
2017-03-20T00:35:47.308Z,92.483
2017-03-20T00:38:43.794Z,93.177
2017-03-20T00:41:36.871Z,93.025
2017-03-20T00:44:31.644Z,94.092
2017-03-20T00:47:26.480Z,92.448
2017-03-20T00:50:21.318Z,92.986
2017-03-20T00:53:15.958Z,92.291
2017-03-20T00:56:10.685Z,93.144
2017-03-20T00:59:07.091Z,92.537
2017-03-20T01:02:00.300Z,94.396
2017-03-20T01:04:54.971Z,94.577
2017-03-20T01:07:49.671Z,95.276
2017-03-20T01:10:44.388Z,92.582
2017-03-20T01:13:39.190Z,93.312
2017-03-20T01:16:33.861Z,94.531
2017-03-20T01:19:30.346Z,93.314
2017-03-20T01:22:23.297Z,95.433
2017-03-20T01:25:18.072Z,93.189
2017-03-20T01:28:12.930Z,94.056
2017-03-20T01:31:07.585Z,93.741
2017-03-20T01:34:02.305Z,94.395
2017-03-20T01:36:57.476Z,94.833
2017-03-20T01:39:52.248Z,93.543
2017-03-20T01:42:46.987Z,95.188
2017-03-20T01:45:41.763Z,94.274
2017-03-20T01:48:36.546Z,93.068
2017-03-20T01:51:31.381Z,93.870
2017-03-20T01:54:26.047Z,94.015
2017-03-20T01:57:20.838Z,93.636
2017-03-20T02:00:15.643Z,92.632
2017-03-20T02:03:12.138Z,92.731
2017-03-20T02:06:05.138Z,93.070
2017-03-20T02:08:59.954Z,94.227
2017-03-20T02:11:54.682Z,93.189
2017-03-20T02:14:49.483Z,93.763
2017-03-20T02:17:44.300Z,93.661
2017-03-20T02:20:40.755Z,92.686
2017-03-20T02:23:33.786Z,93.187
2017-03-20T02:26:28.787Z,93.267
2017-03-20T02:29:23.610Z,93.715
2017-03-20T02:32:18.272Z,93.858
2017-03-20T02:35:13.056Z,92.863
2017-03-20T02:38:07.749Z,92.744
2017-03-20T02:41:04.198Z,92.758
2017-03-20T02:43:58.937Z,92.651
2017-03-20T02:46:51.953Z,92.815
2017-03-20T02:49:46.707Z,93.763
2017-03-20T02:52:41.438Z,93.062
2017-03-20T02:55:36.308Z,92.861
2017-03-20T02:58:31.113Z,93.829
2017-03-20T03:01:25.871Z,92.926
2017-03-20T03:04:20.616Z,94.214
2017-03-20T03:07:15.344Z,94.323
2017-03-20T03:10:10.056Z,92.493
2017-03-20T03:13:04.826Z,92.604
2017-03-20T03:15:59.574Z,94.204
2017-03-20T03:18:54.236Z,93.631
2017-03-20T03:21:48.919Z,93.693
2017-03-20T03:24:43.637Z,94.148
2017-03-20T03:27:38.476Z,93.814
2017-03-20T03:30:33.145Z,94.388
2017-03-20T03:33:29.624Z,92.614
2017-03-20T03:36:22.645Z,92.996
2017-03-20T03:39:17.375Z,92.577
2017-03-20T03:42:12.384Z,94.142
2017-03-20T03:45:06.984Z,92.878
2017-03-20T03:48:01.692Z,92.798
2017-03-20T03:50:58.100Z,92.792
2017-03-20T03:53:51.092Z,93.788
2017-03-20T03:56:45.747Z,93.326
2017-03-20T03:59:40.551Z,93.396
2017-03-20T04:02:35.167Z,94.155
2017-03-20T04:05:29.957Z,94.083
2017-03-20T04:08:24.675Z,93.100
2017-03-20T04:11:19.487Z,92.796
2017-03-20T04:14:14.301Z,93.611
2017-03-20T04:17:09.260Z,93.424
2017-03-20T04:20:03.828Z,93.564
2017-03-20T04:22:58.626Z,92.658
2017-03-20T04:25:53.429Z,92.969
2017-03-20T04:28:48.123Z,93.415
2017-03-20T04:31:42.905Z,93.663
2017-03-20T04:34:39.316Z,94.138
2017-03-20T04:37:34.209Z,92.500
2017-03-20T04:40:27.109Z,93.974
2017-03-20T04:43:23.702Z,94.007
2017-03-20T04:46:16.753Z,93.816
2017-03-20T04:49:11.437Z,94.321
2017-03-20T04:52:06.126Z,93.096
2017-03-20T04:55:02.581Z,93.322
2017-03-20T04:57:55.666Z,92.743
2017-03-20T05:00:50.452Z,92.729
2017-03-20T05:03:45.300Z,93.335
2017-03-20T05:06:41.681Z,93.208
2017-03-20T05:09:34.895Z,92.509
2017-03-20T05:12:29.647Z,92.717
2017-03-20T05:15:24.314Z,92.589
2017-03-20T05:18:19.185Z,93.804
2017-03-20T05:21:15.622Z,94.007
2017-03-20T05:24:08.751Z,93.070
2017-03-20T05:27:05.222Z,92.417
2017-03-20T05:29:58.249Z,92.844
2017-03-20T05:32:54.744Z,92.432
2017-03-20T05:35:47.735Z,92.984
2017-03-20T05:38:42.493Z,93.265
2017-03-20T05:41:37.215Z,92.695
2017-03-20T05:44:32.018Z,92.375
2017-03-20T05:47:26.781Z,92.416
2017-03-20T05:50:21.630Z,93.333
2017-03-20T05:53:18.204Z,92.118
2017-03-20T05:56:11.216Z,92.387
2017-03-20T05:59:07.772Z,92.112
2017-03-20T06:02:00.901Z,91.952
2017-03-20T06:04:55.620Z,92.596
2017-03-20T06:07:50.307Z,92.132
2017-03-20T06:10:46.679Z,92.071
2017-03-20T06:13:40.221Z,92.506
2017-03-20T06:16:34.986Z,92.697
2017-03-20T06:19:29.848Z,91.993
2017-03-20T06:22:24.643Z,92.081
2017-03-20T06:25:19.355Z,92.989
2017-03-20T06:28:14.127Z,93.584
2017-03-20T06:31:08.878Z,92.699
2017-03-20T06:34:03.695Z,92.574
2017-03-20T06:36:58.528Z,92.387
2017-03-20T06:39:53.352Z,92.586
2017-03-20T06:42:48.093Z,92.356
2017-03-20T06:45:42.964Z,92.004
2017-03-20T06:48:37.787Z,91.941
2017-03-20T06:51:32.766Z,92.153
2017-03-20T06:54:27.606Z,92.955
2017-03-20T06:57:22.405Z,92.720
2017-03-20T07:00:17.293Z,92.873
2017-03-20T07:03:12.044Z,92.969
2017-03-20T07:06:06.903Z,92.111
2017-03-20T07:09:01.814Z,92.642
2017-03-20T07:11:57.088Z,92.070
2017-03-20T07:14:51.897Z,91.813
2017-03-20T07:17:46.805Z,92.018
2017-03-20T07:20:41.646Z,92.910
2017-03-20T07:23:36.387Z,92.006
2017-03-20T07:26:32.914Z,92.105
2017-03-20T07:29:26.079Z,91.891
2017-03-20T07:32:20.874Z,91.891
2017-03-20T07:35:15.735Z,91.947
2017-03-20T07:38:10.539Z,93.139
2017-03-20T07:41:05.379Z,92.066
2017-03-20T07:44:00.176Z,92.097
2017-03-20T07:46:55.026Z,92.642
2017-03-20T07:49:49.758Z,92.041
2017-03-20T07:52:44.580Z,92.140
2017-03-20T07:55:41.076Z,91.793
2017-03-20T07:58:34.217Z,91.522
2017-03-20T08:01:28.936Z,91.561
2017-03-20T08:04:23.685Z,91.697
2017-03-20T08:07:18.529Z,91.259
2017-03-20T08:10:13.353Z,91.044
2017-03-20T08:13:08.251Z,91.085
2017-03-20T08:16:03.447Z,91.080
2017-03-20T08:18:58.283Z,90.965
2017-03-20T08:21:54.706Z,90.900
2017-03-20T08:24:47.830Z,90.786
2017-03-20T08:27:42.595Z,90.749
2017-03-20T08:30:37.422Z,90.667
2017-03-20T08:33:32.273Z,90.913
2017-03-20T08:36:27.118Z,90.613
2017-03-20T08:39:23.876Z,90.467
2017-03-20T08:42:16.930Z,90.122
2017-03-20T08:45:11.820Z,90.121
2017-03-20T08:48:06.754Z,89.766
2017-03-20T08:51:01.616Z,89.594
2017-03-20T08:53:56.553Z,89.365
2017-03-20T08:56:53.119Z,88.957
2017-03-20T08:59:46.527Z,88.509
2017-03-20T09:02:41.327Z,87.836
2017-03-20T09:05:36.243Z,88.255
2017-03-20T09:08:31.084Z,87.846
2017-03-20T09:11:25.901Z,87.875
2017-03-20T09:14:20.629Z,87.924
2017-03-20T09:17:15.424Z,88.362
2017-03-20T09:20:10.234Z,88.326
2017-03-20T09:23:05.049Z,88.306
2017-03-20T09:25:59.879Z,88.146
2017-03-20T09:28:54.659Z,88.194
2017-03-20T09:31:49.584Z,88.164
2017-03-20T09:34:44.511Z,87.525
2017-03-20T09:37:39.413Z,87.639
2017-03-20T09:40:34.219Z,87.889
2017-03-20T09:43:29.032Z,87.732
2017-03-20T09:46:23.994Z,87.754
2017-03-20T09:49:18.895Z,87.993
2017-03-20T09:52:13.710Z,87.997
2017-03-20T09:55:08.458Z,87.903
2017-03-20T09:58:05.062Z,87.780
2017-03-20T10:00:58.005Z,87.749
2017-03-20T10:03:52.902Z,87.712
2017-03-20T10:06:47.667Z,87.528
2017-03-20T10:09:42.494Z,87.659
2017-03-20T10:12:37.439Z,87.681
2017-03-20T10:15:34.030Z,87.895
2017-03-20T10:18:27.051Z,88.149
2017-03-20T10:21:21.773Z,87.721
2017-03-20T10:24:18.339Z,87.839
2017-03-20T10:27:11.261Z,87.905
2017-03-20T10:30:06.059Z,88.154
2017-03-20T10:33:00.787Z,88.003
2017-03-20T10:35:55.586Z,88.005
2017-03-20T10:38:50.877Z,87.804
2017-03-20T10:41:45.707Z,87.141
2017-03-20T10:44:40.623Z,87.086
2017-03-20T10:47:35.537Z,87.014
2017-03-20T10:50:30.339Z,86.741
2017-03-20T10:53:25.196Z,86.608
2017-03-20T10:56:20.005Z,85.829
2017-03-20T10:59:14.866Z,85.590
2017-03-20T11:02:09.709Z,86.060
2017-03-20T11:05:04.540Z,85.221
2017-03-20T11:07:59.435Z,85.366
2017-03-20T11:10:54.404Z,83.562
2017-03-20T11:13:49.295Z,82.562
2017-03-20T11:16:44.191Z,82.595
2017-03-20T11:19:39.120Z,82.713
2017-03-20T11:22:35.752Z,81.589
2017-03-20T11:25:28.811Z,83.351
2017-03-20T11:28:23.569Z,83.230
2017-03-20T11:31:18.349Z,83.704
2017-03-20T11:34:13.141Z,83.515
2017-03-20T11:37:07.999Z,83.815
2017-03-20T11:40:02.748Z,83.592
2017-03-20T11:42:57.648Z,83.679
2017-03-20T11:45:52.554Z,82.161
2017-03-20T11:48:49.064Z,82.625
2017-03-20T11:51:42.223Z,83.702
2017-03-20T11:54:37.033Z,82.477
2017-03-20T11:57:33.579Z,83.462
2017-03-20T12:00:26.605Z,82.785
2017-03-20T12:03:21.384Z,83.427
2017-03-20T12:06:17.933Z,83.564
2017-03-20T12:09:11.068Z,83.191
2017-03-20T12:12:06.057Z,83.162
2017-03-20T12:15:00.994Z,83.226
2017-03-20T12:17:55.793Z,82.939
2017-03-20T12:20:50.589Z,82.149
2017-03-20T12:23:45.339Z,82.294
2017-03-20T12:26:40.197Z,81.618
2017-03-20T12:29:36.556Z,80.925
2017-03-20T12:32:29.697Z,81.548
2017-03-20T12:35:24.588Z,81.169
2017-03-20T12:38:19.563Z,81.295
2017-03-20T12:41:14.364Z,80.374
2017-03-20T12:44:09.258Z,80.828
2017-03-20T12:47:04.089Z,81.202
2017-03-20T12:50:00.663Z,80.524
2017-03-20T12:52:53.799Z,81.055
2017-03-20T12:55:48.607Z,81.610
2017-03-20T12:58:43.392Z,81.567
2017-03-20T13:01:38.202Z,81.611
2017-03-20T13:04:32.884Z,81.209
2017-03-20T13:07:27.728Z,81.673
2017-03-20T13:10:22.607Z,81.198
2017-03-20T13:13:17.431Z,80.369
2017-03-20T13:16:12.468Z,80.336
2017-03-20T13:19:07.343Z,80.259
2017-03-20T13:22:02.214Z,79.675
2017-03-20T13:24:57.038Z,79.808
2017-03-20T13:27:51.927Z,80.016
2017-03-20T13:30:46.824Z,79.540
2017-03-20T13:33:41.702Z,79.581
2017-03-20T13:36:36.515Z,79.817
2017-03-20T13:39:31.351Z,79.838
2017-03-20T13:42:26.121Z,79.606
2017-03-20T13:45:20.969Z,79.852
2017-03-20T13:48:15.724Z,80.037
2017-03-20T13:51:10.663Z,80.266
2017-03-20T13:54:05.317Z,80.044
2017-03-20T13:57:00.091Z,80.642
2017-03-20T13:59:54.875Z,80.392
2017-03-20T14:02:51.425Z,80.117
2017-03-20T14:05:44.316Z,78.949
2017-03-20T14:08:39.186Z,79.106
2017-03-20T14:11:33.971Z,79.000
2017-03-20T14:14:28.752Z,77.683
2017-03-20T14:17:23.476Z,76.455
2017-03-20T14:20:18.249Z,78.281
2017-03-20T14:23:13.060Z,77.799
2017-03-20T14:26:07.882Z,77.090
2017-03-20T14:29:02.609Z,77.017
2017-03-20T14:31:57.359Z,74.645
2017-03-20T14:34:52.254Z,75.517
2017-03-20T14:37:46.966Z,77.787
2017-03-20T14:40:41.784Z,77.594
2017-03-20T14:43:36.875Z,77.035
2017-03-20T14:46:31.609Z,76.339
2017-03-20T14:49:26.270Z,77.757
2017-03-20T14:52:21.066Z,75.898
2017-03-20T14:55:15.728Z,77.225
2017-03-20T14:58:10.430Z,77.176
2017-03-20T15:01:04.834Z,77.731
2017-03-20T15:03:59.278Z,77.147
2017-03-20T15:06:53.783Z,77.297
2017-03-20T15:09:48.274Z,77.094
2017-03-20T15:12:42.656Z,77.703
2017-03-20T15:15:37.170Z,76.900
2017-03-20T15:18:31.596Z,76.851
2017-03-20T15:21:26.162Z,76.280
2017-03-20T15:24:20.680Z,77.474
2017-03-20T15:27:14.997Z,74.019
2017-03-20T15:30:09.521Z,76.027
2017-03-20T15:33:03.997Z,74.783
2017-03-20T15:35:58.472Z,74.828
2017-03-20T15:38:52.944Z,75.752
2017-03-20T15:41:47.481Z,75.396
2017-03-20T15:44:41.961Z,73.693
2017-03-20T15:47:36.521Z,75.128
2017-03-20T15:50:30.949Z,74.903
2017-03-20T15:53:25.572Z,74.894
2017-03-20T15:56:20.096Z,74.392
2017-03-20T15:59:14.797Z,75.236
2017-03-20T16:02:09.346Z,76.087
2017-03-20T16:05:03.899Z,75.791
2017-03-20T16:07:58.425Z,74.540
2017-03-20T16:10:52.943Z,75.331
2017-03-20T16:13:47.432Z,74.975
2017-03-20T16:16:42.148Z,75.595
2017-03-20T16:19:36.785Z,75.170
2017-03-20T16:22:31.268Z,75.234
2017-03-20T16:25:25.850Z,76.332
2017-03-20T16:28:20.293Z,77.024
2017-03-20T16:31:16.724Z,75.665
2017-03-20T16:34:09.490Z,77.029
2017-03-20T16:37:03.975Z,76.844
2017-03-20T16:39:58.520Z,77.303
2017-03-20T16:42:53.100Z,77.757
2017-03-20T16:45:48.073Z,78.069
2017-03-20T16:48:42.702Z,78.353
2017-03-20T16:51:37.141Z,78.861
2017-03-20T16:54:31.758Z,79.417
2017-03-20T16:57:26.428Z,79.662
2017-03-20T17:00:20.973Z,79.273
2017-03-20T17:03:15.459Z,80.685
2017-03-20T17:06:10.241Z,81.358
2017-03-20T17:09:04.713Z,81.013
2017-03-20T17:12:00.988Z,81.276
2017-03-20T17:14:53.768Z,82.836
2017-03-20T17:17:48.257Z,83.590
2017-03-20T17:20:42.746Z,83.326
2017-03-20T17:23:37.556Z,84.028
2017-03-20T17:26:31.958Z,83.192
2017-03-20T17:29:26.491Z,84.069
2017-03-20T17:32:21.053Z,83.209
2017-03-20T17:35:15.561Z,84.357
2017-03-20T17:38:10.134Z,84.285
2017-03-20T17:41:04.736Z,83.222
2017-03-20T17:43:59.333Z,83.475
2017-03-20T17:46:53.837Z,84.447
2017-03-20T17:49:48.227Z,84.512
2017-03-20T17:52:42.683Z,84.405
2017-03-20T17:55:37.209Z,83.573
2017-03-20T17:58:31.666Z,83.831
2017-03-20T18:01:26.172Z,83.844
2017-03-20T18:04:20.754Z,83.962
2017-03-20T18:07:15.206Z,83.651
2017-03-20T18:10:09.685Z,84.101
2017-03-20T18:13:04.209Z,83.287
2017-03-20T18:15:58.655Z,83.479
2017-03-20T18:18:53.088Z,82.741
2017-03-20T18:21:47.615Z,82.583
2017-03-20T18:24:42.040Z,83.078
2017-03-20T18:27:36.405Z,82.789
2017-03-20T18:30:30.866Z,82.453
2017-03-20T18:33:25.253Z,82.176
2017-03-20T18:36:19.821Z,81.972
2017-03-20T18:39:14.584Z,82.111
2017-03-20T18:42:09.008Z,81.761
2017-03-20T18:45:03.436Z,81.607
2017-03-20T18:47:57.871Z,81.415
2017-03-20T18:50:52.379Z,81.468
2017-03-20T18:53:46.889Z,80.954
2017-03-20T18:56:41.348Z,80.978
2017-03-20T18:59:35.733Z,80.725
2017-03-20T19:02:30.198Z,80.795
2017-03-20T19:05:24.497Z,80.341
2017-03-20T19:08:18.907Z,80.469
2017-03-20T19:11:13.321Z,80.482
2017-03-20T19:14:07.751Z,80.579
2017-03-20T19:17:02.168Z,80.225
2017-03-20T19:19:58.344Z,80.299
2017-03-20T19:22:50.972Z,80.073
2017-03-20T19:25:45.511Z,80.145
2017-03-20T19:28:40.270Z,79.885
2017-03-20T19:31:34.814Z,79.646
2017-03-20T19:34:29.259Z,79.594
2017-03-20T19:37:23.700Z,79.317
2017-03-20T19:40:18.117Z,79.670
2017-03-20T19:43:12.566Z,79.927
2017-03-20T19:46:06.900Z,79.365
2017-03-20T19:49:01.366Z,79.410
2017-03-20T19:51:55.854Z,79.479
2017-03-20T19:54:50.308Z,79.582
2017-03-20T19:57:44.758Z,79.821
2017-03-20T20:00:39.247Z,79.668
2017-03-20T20:03:33.685Z,79.915
2017-03-20T20:06:28.054Z,79.577
2017-03-20T20:09:22.441Z,79.926
2017-03-20T20:12:16.912Z,79.741
2017-03-20T20:15:11.335Z,79.148
2017-03-20T20:18:05.734Z,79.668
2017-03-20T20:21:00.032Z,79.273
2017-03-20T20:23:54.533Z,78.889
2017-03-20T20:26:48.933Z,78.913
2017-03-20T20:29:43.329Z,78.572
2017-03-20T20:32:37.866Z,78.408
2017-03-20T20:35:32.394Z,78.659
2017-03-20T20:38:26.749Z,78.992
2017-03-20T20:41:21.278Z,77.755
2017-03-20T20:44:17.388Z,77.611
2017-03-20T20:47:10.246Z,77.384
2017-03-20T20:50:04.798Z,77.595
2017-03-20T20:52:59.306Z,77.523
2017-03-20T20:55:53.884Z,78.501
2017-03-20T20:58:48.346Z,77.221
2017-03-20T21:01:42.778Z,76.762
2017-03-20T21:04:37.019Z,77.658
2017-03-20T21:07:31.292Z,77.751
2017-03-20T21:10:27.462Z,77.637
2017-03-20T21:13:20.121Z,76.844
2017-03-20T21:16:14.617Z,77.398
2017-03-20T21:19:09.196Z,77.085
2017-03-20T21:22:03.597Z,76.844
2017-03-20T21:24:58.129Z,77.561
2017-03-20T21:27:52.585Z,76.762
2017-03-20T21:30:46.984Z,77.377
2017-03-20T21:33:41.403Z,76.634
2017-03-20T21:36:35.692Z,77.275
2017-03-20T21:39:30.119Z,77.416
2017-03-20T21:42:24.486Z,76.536
2017-03-20T21:45:18.908Z,76.355
2017-03-20T21:48:15.033Z,76.971
2017-03-20T21:51:07.748Z,76.761
2017-03-20T21:54:02.108Z,76.960
2017-03-20T21:56:56.504Z,76.971
2017-03-20T21:59:50.975Z,76.135
2017-03-20T22:02:45.665Z,77.078
2017-03-20T22:05:40.201Z,76.958
2017-03-20T22:08:34.483Z,76.392
2017-03-20T22:11:28.949Z,76.117
2017-03-20T22:14:23.344Z,76.809
2017-03-20T22:17:17.836Z,76.483
2017-03-20T22:20:12.343Z,75.643
2017-03-20T22:23:06.817Z,75.581
2017-03-20T22:26:01.255Z,75.767
2017-03-20T22:28:55.692Z,76.193
2017-03-20T22:31:50.118Z,76.454
2017-03-20T22:34:44.585Z,75.803
2017-03-20T22:37:38.981Z,76.341
2017-03-20T22:40:33.405Z,75.901
2017-03-20T22:43:27.839Z,75.901
2017-03-20T22:46:22.259Z,76.184
2017-03-20T22:49:16.738Z,76.782
2017-03-20T22:52:11.121Z,76.666
2017-03-20T22:55:05.555Z,76.704
2017-03-20T22:58:00.010Z,76.032
2017-03-20T23:00:54.520Z,76.534
2017-03-20T23:03:49.029Z,75.929
2017-03-20T23:06:43.515Z,75.688
2017-03-20T23:09:39.687Z,76.233
2017-03-20T23:12:32.242Z,76.626
2017-03-20T23:15:26.664Z,76.581
2017-03-20T23:18:21.025Z,76.330
2017-03-20T23:21:15.334Z,76.820
2017-03-20T23:24:09.801Z,77.291
2017-03-20T23:27:04.255Z,76.756
2017-03-20T23:29:58.759Z,77.103
2017-03-20T23:32:53.140Z,77.516
2017-03-20T23:35:47.450Z,77.110
2017-03-20T23:38:41.802Z,77.406
2017-03-20T23:41:36.130Z,77.595
2017-03-20T23:44:30.587Z,77.375
2017-03-20T23:47:25.105Z,77.415
2017-03-20T23:50:19.658Z,77.624
2017-03-20T23:53:15.686Z,77.615
2017-03-20T23:56:08.509Z,77.330
2017-03-20T23:59:02.944Z,77.494
